Time;durP1;ratioP1;P1;durP2;ratioP2;P2;SDS_P1;SDS_P2;PMS_P1;PMS_P2;Temp;Humidity;BMP_temperature;BMP_pressure;BME280_temperature;BME280_humidity;BME280_pressure;Samples;Min_cycle;Max_cycle;Signal;HPM_P1;HPM_P2
2023/01/26 00:00:42;;;;;;;31.63;20.23;;;2.50;99.90;;;;;;5006094;28;20675;-77
2023/01/26 00:03:07;;;;;;;39.77;22.43;;;2.50;99.90;;;;;;5006642;28;20038;-75
2023/01/26 00:05:36;;;;;;;54.73;24.73;;;2.50;99.90;;;;;;5006390;28;20034;-75
2023/01/26 00:08:01;;;;;;;36.60;20.87;;;2.50;99.90;;;;;;5006920;28;20088;-75
2023/01/26 00:10:27;;;;;;;33.27;22.77;;;2.50;99.90;;;;;;5005088;28;20065;-75
2023/01/26 00:12:52;;;;;;;38.70;20.93;;;2.50;99.90;;;;;;5005500;28;20045;-75
2023/01/26 00:15:18;;;;;;;44.03;24.17;;;2.50;99.90;;;;;;5012821;28;20041;-75
2023/01/26 00:17:44;;;;;;;42.30;22.80;;;2.50;99.90;;;;;;5024721;28;20041;-76
2023/01/26 00:20:10;;;;;;;43.27;24.77;;;2.50;99.90;;;;;;5024750;28;20579;-75
2023/01/26 00:22:35;;;;;;;42.50;22.60;;;2.50;99.90;;;;;;5024032;28;20044;-77
2023/01/26 00:25:01;;;;;;;46.53;22.90;;;2.50;99.90;;;;;;5016309;28;20053;-76
2023/01/26 00:27:26;;;;;;;52.10;25.80;;;2.50;99.90;;;;;;5005110;28;20402;-75
2023/01/26 00:29:52;;;;;;;54.67;21.97;;;2.60;99.90;;;;;;5005288;28;20060;-76
2023/01/26 00:32:18;;;;;;;52.47;27.03;;;2.60;99.90;;;;;;4989428;28;20128;-75
2023/01/26 00:34:44;;;;;;;45.83;23.63;;;2.50;99.90;;;;;;5004957;28;20046;-75
2023/01/26 00:37:09;;;;;;;45.90;25.73;;;2.60;99.90;;;;;;5004284;28;20046;-76
2023/01/26 00:39:35;;;;;;;47.47;24.50;;;2.60;99.90;;;;;;5004711;28;20053;-75
2023/01/26 00:42:08;;;;;;;48.97;23.13;;;2.60;99.90;;;;;;5009695;28;20052;-76
2023/01/26 00:44:35;;;;;;;50.33;25.80;;;2.60;99.90;;;;;;5010066;28;20413;-75
2023/01/26 00:47:00;;;;;;;46.30;22.90;;;2.50;99.90;;;;;;5010687;28;20042;-75
2023/01/26 00:49:26;;;;;;;37.87;22.47;;;2.60;99.90;;;;;;5010037;28;20041;-75
2023/01/26 00:51:52;;;;;;;47.27;26.73;;;2.60;99.90;;;;;;5007428;28;20046;-75
2023/01/26 00:54:17;;;;;;;41.60;22.73;;;2.60;99.90;;;;;;5009308;28;20494;-76
2023/01/26 00:56:43;;;;;;;57.03;27.20;;;2.60;99.90;;;;;;5024895;28;20100;-75
2023/01/26 00:59:08;;;;;;;38.23;23.10;;;2.60;99.90;;;;;;5008527;28;20493;-76
2023/01/26 01:01:34;;;;;;;38.03;20.87;;;2.60;99.90;;;;;;5009649;28;20122;-75
2023/01/26 01:04:00;;;;;;;38.23;23.17;;;2.60;99.90;;;;;;5009843;28;20038;-75
2023/01/26 01:06:25;;;;;;;38.27;21.70;;;2.60;99.90;;;;;;5008641;28;20042;-75
2023/01/26 01:08:51;;;;;;;38.50;22.93;;;2.60;99.90;;;;;;5008834;28;20076;-76
2023/01/26 01:11:16;;;;;;;38.07;24.20;;;2.60;99.90;;;;;;5008660;28;20080;-75
2023/01/26 01:13:42;;;;;;;36.43;20.77;;;2.60;99.90;;;;;;5009645;28;20445;-77
2023/01/26 01:16:10;;;;;;;42.97;21.93;;;2.60;99.90;;;;;;5020816;28;20056;-75
2023/01/26 01:18:36;;;;;;;46.93;23.20;;;2.60;99.90;;;;;;5008137;28;20050;-75
2023/01/26 01:21:07;;;;;;;35.13;20.30;;;2.60;99.90;;;;;;5007502;28;20547;-75
2023/01/26 01:23:32;;;;;;;41.50;20.38;;;2.60;99.90;;;;;;5009019;28;20510;-75
2023/01/26 01:25:59;;;;;;;47.47;24.07;;;2.70;99.90;;;;;;5024732;28;20084;-76
2023/01/26 01:28:24;;;;;;;46.03;23.07;;;2.70;99.90;;;;;;5007856;28;20038;-75
2023/01/26 01:30:50;;;;;;;42.70;21.00;;;2.70;99.90;;;;;;5010005;28;20560;-76
2023/01/26 01:33:16;;;;;;;38.60;19.13;;;2.60;99.90;;;;;;5009969;28;20103;-75
2023/01/26 01:35:41;;;;;;;33.27;19.60;;;2.60;99.90;;;;;;5006472;28;20045;-75
2023/01/26 01:38:07;;;;;;;42.40;22.57;;;2.70;99.90;;;;;;5009319;28;20454;-75
2023/01/26 01:40:33;;;;;;;39.90;22.50;;;2.70;99.90;;;;;;5008883;28;20042;-75
2023/01/26 01:42:58;;;;;;;33.83;20.20;;;2.70;99.90;;;;;;5008034;28;20498;-75
2023/01/26 01:46:02;;;;;;;30.73;17.80;;;2.70;99.90;;;;;;5009257;28;20077;-76
2023/01/26 01:48:49;;;;;;;36.53;22.53;;;2.70;99.90;;;;;;4932352;29;20055;-75
2023/01/26 01:51:27;;;;;;;38.77;21.53;;;2.70;99.90;;;;;;5003842;28;20050;-75
2023/01/26 01:53:57;;;;;;;42.77;23.20;;;2.70;99.90;;;;;;5006625;28;20045;-75
2023/01/26 01:56:27;;;;;;;38.97;20.27;;;2.70;99.90;;;;;;5007119;28;20556;-77
2023/01/26 01:58:56;;;;;;;35.10;21.03;;;2.70;99.90;;;;;;4991111;28;20084;-76
2023/01/26 02:01:21;;;;;;;33.87;19.33;;;2.70;99.90;;;;;;5040311;28;20049;-77
2023/01/26 02:03:51;;;;;;;36.73;21.47;;;2.70;99.90;;;;;;5009045;28;20034;-76
2023/01/26 02:06:35;;;;;;;37.93;20.23;;;2.70;99.90;;;;;;4990456;28;20088;-76
2023/01/26 02:09:02;;;;;;;40.53;20.60;;;2.70;99.90;;;;;;5006941;28;20049;-75
2023/01/26 02:11:33;;;;;;;44.73;22.57;;;2.70;99.90;;;;;;5008318;28;20077;-76
2023/01/26 02:14:02;;;;;;;37.80;22.75;;;2.70;99.90;;;;;;5007549;28;20080;-75
2023/01/26 02:16:27;;;;;;;53.17;23.67;;;2.70;99.90;;;;;;5024505;28;20125;-75
2023/01/26 02:18:53;;;;;;;48.77;22.77;;;2.70;99.90;;;;;;5026914;28;20124;-76
2023/01/26 02:21:21;;;;;;;46.63;23.13;;;2.70;99.90;;;;;;5022361;28;20034;-75
2023/01/26 02:24:02;;;;;;;41.20;24.15;;;2.70;99.90;;;;;;5008603;28;20493;-76
2023/01/26 02:26:33;;;;;;;45.97;21.47;;;2.70;99.90;;;;;;5007005;28;20104;-75
2023/01/26 02:29:01;;;;;;;42.77;21.90;;;2.70;99.90;;;;;;5008261;28;20084;-76
2023/01/26 02:31:27;;;;;;;39.50;20.63;;;2.70;99.90;;;;;;5007191;28;20685;-77
2023/01/26 02:33:52;;;;;;;45.90;24.67;;;2.80;99.90;;;;;;5007316;28;20042;-75
2023/01/26 02:36:28;;;;;;;43.37;23.23;;;2.70;99.90;;;;;;5007822;28;20100;-74
2023/01/26 02:39:31;;;;;;;40.67;22.80;;;2.80;99.90;;;;;;4990465;28;20050;-76
2023/01/26 02:44:42;;;;;;;42.57;24.03;;;2.80;99.90;;;;;;5007923;28;20053;-75
2023/01/26 02:47:13;;;;;;;41.90;22.63;;;2.80;99.90;;;;;;5039414;28;20061;-75
2023/01/26 02:49:51;;;;;;;46.53;26.77;;;2.80;99.90;;;;;;5006354;28;20049;-76
2023/01/26 02:52:19;;;;;;;44.63;24.97;;;2.80;99.90;;;;;;5006078;28;20187;-75
2023/01/26 02:57:29;;;;;;;53.93;25.87;;;2.80;99.90;;;;;;5007168;28;20046;-75
2023/01/26 02:59:55;;;;;;;52.93;27.00;;;2.80;99.90;;;;;;5007673;28;20556;-75
2023/01/26 03:02:21;;;;;;;46.57;26.97;;;2.80;99.90;;;;;;5006139;28;20050;-77
2023/01/26 03:04:46;;;;;;;41.07;22.63;;;2.90;99.90;;;;;;5007899;28;20042;-75
2023/01/26 03:07:12;;;;;;;52.73;26.83;;;2.90;99.90;;;;;;5006894;28;20478;-76
2023/01/26 03:09:38;;;;;;;48.50;26.37;;;2.90;99.90;;;;;;5007162;28;20163;-75
2023/01/26 03:12:03;;;;;;;52.47;24.77;;;2.90;99.90;;;;;;5007500;28;20042;-75
2023/01/26 03:14:29;;;;;;;49.80;28.97;;;2.90;99.90;;;;;;5007394;28;20037;-76
2023/01/26 03:16:55;;;;;;;50.33;24.50;;;2.90;99.90;;;;;;5013585;28;20041;-75
2023/01/26 03:27:41;;;;;;;57.28;30.17;;;3.00;99.90;;;;;;5038861;28;20065;-75
2023/01/26 03:30:07;;;;;;;56.97;26.57;;;2.90;99.90;;;;;;5006014;28;20087;-76
2023/01/26 03:32:33;;;;;;;47.22;26.52;;;3.00;99.90;;;;;;5005926;28;20046;-75
2023/01/26 03:34:58;;;;;;;48.73;27.53;;;3.00;99.90;;;;;;5005950;28;20046;-76
2023/01/26 03:37:24;;;;;;;58.87;29.17;;;3.00;99.90;;;;;;5005940;28;20104;-75
2023/01/26 03:56:31;;;;;;;57.17;28.00;;;3.10;99.90;;;;;;5038284;28;20108;-76
2023/01/26 03:59:07;;;;;;;50.53;25.75;;;3.10;99.90;;;;;;5007004;28;20050;-76
2023/01/26 04:10:12;;;;;;;63.03;29.35;;;3.10;99.90;;;;;;5006585;28;20046;-78
2023/01/26 04:12:37;;;;;;;42.92;24.17;;;3.10;99.90;;;;;;5006598;28;20486;-78
2023/01/26 04:23:19;;;;;;;40.15;20.85;;;3.30;99.90;;;;;;5029341;28;20096;-78
2023/01/26 04:25:45;;;;;;;40.97;15.45;;;3.40;99.90;;;;;;5016104;28;20440;-78
2023/01/26 04:28:11;;;;;;;27.60;13.65;;;3.50;99.90;;;;;;5009243;28;20057;-78
2023/01/26 04:30:37;;;;;;;25.57;11.53;;;3.50;99.90;;;;;;5010546;28;20497;-78
2023/01/26 04:33:03;;;;;;;27.43;10.60;;;3.70;99.90;;;;;;5009370;28;20113;-78
2023/01/26 04:35:29;;;;;;;35.83;13.55;;;3.80;99.90;;;;;;5008042;28;20058;-78
2023/01/26 04:37:54;;;;;;;24.00;9.23;;;3.90;99.90;;;;;;5010288;28;20398;-79
2023/01/26 04:40:20;;;;;;;31.60;8.40;;;4.00;99.90;;;;;;5010393;28;20262;-78
2023/01/26 04:42:46;;;;;;;40.50;9.30;;;4.00;99.90;;;;;;5011078;28;20046;-78
2023/01/26 04:45:11;;;;;;;28.33;6.68;;;4.10;99.90;;;;;;5009095;28;20046;-78
2023/01/26 04:47:37;;;;;;;15.13;7.65;;;4.20;99.90;;;;;;5009822;28;20073;-78
2023/01/26 04:50:03;;;;;;;25.42;7.72;;;4.20;99.90;;;;;;5009280;28;20065;-78
2023/01/26 04:52:29;;;;;;;23.77;7.53;;;4.20;99.90;;;;;;5008740;28;20037;-78
2023/01/26 04:54:54;;;;;;;25.17;7.13;;;4.20;99.90;;;;;;5010072;28;20041;-77
2023/01/26 04:57:22;;;;;;;27.13;7.28;;;4.20;99.90;;;;;;5010370;28;20505;-78
2023/01/26 04:59:47;;;;;;;35.83;5.35;;;4.30;99.90;;;;;;5010387;28;20038;-78
2023/01/26 05:02:13;;;;;;;25.58;7.07;;;4.30;99.90;;;;;;5008710;28;20057;-79
2023/01/26 05:04:38;;;;;;;31.02;7.75;;;4.30;99.90;;;;;;5009693;28;20049;-78
2023/01/26 05:07:04;;;;;;;33.20;6.80;;;4.30;99.90;;;;;;5007596;28;20073;-79
2023/01/26 05:09:29;;;;;;;18.35;5.30;;;4.40;99.90;;;;;;4992044;28;20582;-76
2023/01/26 05:12:32;;;;;;;29.88;7.57;;;4.40;99.90;;;;;;5008194;28;20046;-76
2023/01/26 05:14:41;;;;;;;14.15;6.07;;;4.40;99.90;;;;;;5011342;28;20050;-76
2023/01/26 05:17:06;;;;;;;37.97;6.07;;;4.40;99.90;;;;;;5029807;28;20091;-78
2023/01/26 05:19:32;;;;;;;23.05;8.07;;;4.50;99.90;;;;;;5015529;28;20046;-79
2023/01/26 05:21:57;;;;;;;24.48;5.93;;;4.50;99.90;;;;;;5007621;28;20414;-79
2023/01/26 05:24:23;;;;;;;15.48;5.55;;;4.50;99.90;;;;;;5009476;28;20038;-78
2023/01/26 05:27:19;;;;;;;24.90;6.13;;;4.60;99.90;;;;;;5008696;28;20038;-79
2023/01/26 05:29:34;;;;;;;22.98;6.93;;;4.60;99.90;;;;;;5009208;28;20050;-78
2023/01/26 05:32:00;;;;;;;36.13;6.20;;;4.60;99.90;;;;;;5008156;28;20418;-78
2023/01/26 05:34:26;;;;;;;36.72;9.63;;;4.60;99.90;;;;;;5007655;28;20092;-77
2023/01/26 05:36:51;;;;;;;33.53;5.15;;;4.60;99.90;;;;;;5008561;28;20049;-80
2023/01/26 05:39:17;;;;;;;32.83;7.07;;;4.60;99.90;;;;;;5008670;28;20053;-78
2023/01/26 05:41:42;;;;;;;48.63;6.35;;;4.60;99.90;;;;;;5007744;28;20038;-78
2023/01/26 05:44:08;;;;;;;26.60;5.20;;;4.60;99.90;;;;;;5008151;28;20533;-78
2023/01/26 05:46:33;;;;;;;27.65;6.95;;;4.50;99.90;;;;;;5008968;28;20414;-78
2023/01/26 05:48:59;;;;;;;15.82;4.35;;;4.60;99.90;;;;;;5009020;28;20050;-78
2023/01/26 05:51:25;;;;;;;18.17;6.78;;;4.60;99.90;;;;;;5006538;28;20054;-78
2023/01/26 05:53:50;;;;;;;23.58;5.93;;;4.50;99.90;;;;;;5008091;28;20045;-81
2023/01/26 05:56:16;;;;;;;34.05;7.28;;;4.50;99.90;;;;;;5008070;28;20246;-78
2023/01/26 05:58:41;;;;;;;30.08;7.60;;;4.50;99.90;;;;;;5008525;28;20038;-78
2023/01/26 06:01:07;;;;;;;11.98;4.80;;;4.50;99.90;;;;;;5008947;28;20074;-78
2023/01/26 06:03:33;;;;;;;25.58;6.07;;;4.50;99.90;;;;;;5008687;28;20041;-78
2023/01/26 06:05:58;;;;;;;16.88;6.20;;;4.50;99.90;;;;;;5006913;28;20050;-77
2023/01/26 06:08:24;;;;;;;23.65;9.95;;;4.50;99.90;;;;;;5010524;28;20037;-79
2023/01/26 06:10:49;;;;;;;27.65;5.82;;;4.50;99.90;;;;;;5016863;28;20397;-78
2023/01/26 06:13:15;;;;;;;11.90;5.18;;;4.50;99.90;;;;;;5013339;28;20107;-79
2023/01/26 06:15:41;;;;;;;29.88;5.95;;;4.50;99.90;;;;;;5014109;28;20434;-77
2023/01/26 06:18:07;;;;;;;27.55;5.43;;;4.50;99.90;;;;;;5028262;28;20049;-76
2023/01/26 06:20:32;;;;;;;26.15;5.65;;;4.50;99.90;;;;;;5019857;28;20449;-77
2023/01/26 06:23:01;;;;;;;13.05;5.50;;;4.50;99.90;;;;;;5014576;28;20033;-77
2023/01/26 06:25:26;;;;;;;21.38;5.03;;;4.50;99.90;;;;;;4999769;28;20080;-76
2023/01/26 06:27:56;;;;;;;28.45;5.65;;;4.50;99.90;;;;;;5014743;28;20070;-77
2023/01/26 06:30:22;;;;;;;31.02;7.03;;;4.40;99.90;;;;;;5020121;28;20095;-76
2023/01/26 06:32:47;;;;;;;39.40;6.38;;;4.40;99.90;;;;;;5011682;28;20041;-76
2023/01/26 06:35:13;;;;;;;22.10;7.43;;;4.40;99.90;;;;;;5007886;28;20038;-76
2023/01/26 06:37:39;;;;;;;22.05;4.88;;;4.40;99.90;;;;;;5007794;28;20552;-76
2023/01/26 06:40:05;;;;;;;19.25;5.47;;;4.40;99.90;;;;;;5013526;28;20482;-74
2023/01/26 06:42:30;;;;;;;14.27;5.82;;;4.40;99.90;;;;;;5013903;28;20050;-74
2023/01/26 06:44:57;;;;;;;23.88;5.10;;;4.40;99.90;;;;;;5007298;28;20042;-74
2023/01/26 06:47:23;;;;;;;15.63;5.15;;;4.40;99.90;;;;;;5027385;28;20041;-73
2023/01/26 06:49:49;;;;;;;36.15;4.95;;;4.40;99.90;;;;;;5012706;28;20133;-74
2023/01/26 06:52:30;;;;;;;16.38;5.63;;;4.30;99.90;;;;;;5006033;28;20050;-73
2023/01/26 06:54:59;;;;;;;25.25;7.65;;;4.40;99.90;;;;;;5029213;28;20049;-74
2023/01/26 06:57:25;;;;;;;26.10;4.97;;;4.40;99.90;;;;;;5023891;28;20454;-73
2023/01/26 06:59:50;;;;;;;19.52;4.90;;;4.40;99.90;;;;;;5027280;28;20128;-76
2023/01/26 07:02:18;;;;;;;22.67;6.80;;;4.40;99.90;;;;;;5028038;28;20092;-74
2023/01/26 07:04:45;;;;;;;15.13;6.20;;;4.40;99.90;;;;;;5014795;28;20042;-73
2023/01/26 07:07:10;;;;;;;18.13;4.65;;;4.40;99.90;;;;;;5007395;28;20573;-77
2023/01/26 07:09:36;;;;;;;11.40;5.10;;;4.40;99.90;;;;;;5007012;28;20084;-73
2023/01/26 07:12:01;;;;;;;28.92;6.07;;;4.30;99.90;;;;;;5007432;28;20049;-74
2023/01/26 07:14:27;;;;;;;20.88;4.95;;;4.40;99.90;;;;;;5014630;28;20116;-76
2023/01/26 07:16:53;;;;;;;14.98;5.93;;;4.40;99.90;;;;;;5027260;28;20413;-75
2023/01/26 07:19:18;;;;;;;18.95;5.35;;;4.40;99.90;;;;;;5026026;28;20077;-75
2023/01/26 07:21:44;;;;;;;18.60;5.25;;;4.40;99.90;;;;;;5025793;28;20052;-75
2023/01/26 07:24:09;;;;;;;23.30;6.45;;;4.40;99.90;;;;;;5026908;28;20527;-75
2023/01/26 07:26:35;;;;;;;18.05;7.07;;;4.40;99.90;;;;;;5026542;28;20042;-77
2023/01/26 07:29:01;;;;;;;22.42;4.95;;;4.40;99.90;;;;;;5026004;28;20137;-76
2023/01/26 07:31:26;;;;;;;20.80;5.13;;;4.40;99.90;;;;;;5025386;28;20045;-74
2023/01/26 07:33:52;;;;;;;23.67;5.88;;;4.40;99.90;;;;;;5008471;28;20125;-75
2023/01/26 07:36:17;;;;;;;18.70;5.90;;;4.40;99.90;;;;;;5007834;28;20507;-76
2023/01/26 07:38:43;;;;;;;26.50;6.32;;;4.40;99.90;;;;;;5006843;28;20061;-75
2023/01/26 07:41:11;;;;;;;26.25;8.00;;;4.40;99.90;;;;;;5007029;28;20041;-74
2023/01/26 07:43:37;;;;;;;11.45;3.90;;;4.40;99.90;;;;;;5006876;28;20498;-74
2023/01/26 07:46:04;;;;;;;11.48;4.85;;;4.40;99.90;;;;;;5011347;28;20064;-74
2023/01/26 07:48:30;;;;;;;12.43;5.47;;;4.30;99.90;;;;;;5026526;28;20088;-76
2023/01/26 07:51:01;;;;;;;23.45;3.72;;;4.30;99.90;;;;;;5024654;28;20045;-74
2023/01/26 07:53:28;;;;;;;15.63;4.18;;;4.30;99.90;;;;;;5022572;28;20470;-76
2023/01/26 07:56:08;;;;;;;15.60;4.60;;;4.30;99.90;;;;;;5006039;28;20414;-74
2023/01/26 07:58:34;;;;;;;22.20;3.60;;;4.30;99.90;;;;;;5012114;28;20041;-74
2023/01/26 08:01:11;;;;;;;16.55;6.05;;;4.30;99.90;;;;;;5022242;28;20537;-74
2023/01/26 08:03:37;;;;;;;6.65;2.47;;;4.40;99.90;;;;;;5009882;28;20735;-76
2023/01/26 08:06:03;;;;;;;18.80;4.10;;;4.30;99.90;;;;;;5004393;28;20041;-74
2023/01/26 08:08:29;;;;;;;15.10;4.97;;;4.30;99.90;;;;;;5006659;28;20137;-76
2023/01/26 08:10:59;;;;;;;18.35;4.82;;;4.30;99.90;;;;;;5006303;28;20121;-74
2023/01/26 08:13:29;;;;;;;36.85;5.97;;;4.40;99.90;;;;;;5006950;28;20054;-74
2023/01/26 08:15:54;;;;;;;14.55;5.57;;;4.40;99.90;;;;;;5006774;28;20113;-73
2023/01/26 08:18:20;;;;;;;10.52;4.72;;;4.40;99.90;;;;;;5007782;28;20176;-75
2023/01/26 08:20:50;;;;;;;19.30;6.93;;;4.40;99.90;;;;;;5010231;28;20033;-75
2023/01/26 08:23:16;;;;;;;33.17;5.30;;;4.40;99.90;;;;;;5015707;28;20037;-74
2023/01/26 08:25:41;;;;;;;18.95;5.28;;;4.50;99.90;;;;;;5009410;28;20452;-74
2023/01/26 08:28:07;;;;;;;18.83;5.15;;;4.50;99.90;;;;;;5006204;28;20042;-75
2023/01/26 08:30:32;;;;;;;33.60;5.25;;;4.50;99.90;;;;;;5011165;28;20048;-74
2023/01/26 08:32:58;;;;;;;24.45;6.43;;;4.50;99.90;;;;;;5006693;28;20037;-74
2023/01/26 08:35:23;;;;;;;29.67;6.03;;;4.50;99.90;;;;;;5005010;28;20037;-75
2023/01/26 08:37:49;;;;;;;14.98;4.43;;;4.60;99.90;;;;;;5006054;28;20401;-74
2023/01/26 08:40:15;;;;;;;12.38;4.30;;;4.50;99.90;;;;;;5006479;28;20048;-74
2023/01/26 08:42:41;;;;;;;8.65;4.25;;;4.60;99.90;;;;;;5005796;28;20473;-75
2023/01/26 08:45:07;;;;;;;31.92;4.93;;;4.60;99.90;;;;;;5005979;28;20137;-75
2023/01/26 08:47:32;;;;;;;10.27;3.67;;;4.60;99.90;;;;;;5009300;28;20038;-75
2023/01/26 08:49:58;;;;;;;19.00;4.95;;;4.60;99.90;;;;;;5021416;28;20048;-74
2023/01/26 08:52:23;;;;;;;22.60;5.82;;;4.70;99.90;;;;;;5016880;28;20050;-74
2023/01/26 08:54:49;;;;;;;9.20;4.10;;;4.70;99.90;;;;;;5026197;28;20045;-75
2023/01/26 08:57:15;;;;;;;21.48;6.28;;;4.70;99.90;;;;;;5013334;28;20387;-75
2023/01/26 08:59:40;;;;;;;9.43;4.72;;;4.80;99.90;;;;;;5005248;28;20497;-74
2023/01/26 09:02:08;;;;;;;21.30;5.75;;;4.80;99.90;;;;;;5013713;28;20050;-75
2023/01/26 09:04:34;;;;;;;13.27;4.32;;;4.80;99.90;;;;;;5007280;28;20046;-75
2023/01/26 09:07:00;;;;;;;11.45;4.57;;;4.90;99.90;;;;;;5009933;28;20048;-74
2023/01/26 09:09:25;;;;;;;15.40;5.93;;;4.90;99.90;;;;;;5021590;28;20053;-74
2023/01/26 09:11:54;;;;;;;20.60;3.88;;;4.90;99.90;;;;;;5013325;28;20085;-75
2023/01/26 09:14:20;;;;;;;10.30;4.88;;;5.00;99.90;;;;;;5049131;28;20054;-74
2023/01/26 09:16:45;;;;;;;10.55;4.50;;;5.00;99.90;;;;;;5027824;28;20098;-74
2023/01/26 09:19:11;;;;;;;21.75;4.90;;;5.00;99.90;;;;;;5023885;28;20346;-74
2023/01/26 09:21:36;;;;;;;12.48;4.55;;;5.10;99.90;;;;;;5025148;28;20394;-74
2023/01/26 09:24:02;;;;;;;15.05;5.60;;;5.10;99.90;;;;;;5012562;28;20129;-75
2023/01/26 09:26:29;;;;;;;13.48;5.80;;;5.20;99.90;;;;;;5020116;28;20552;-74
2023/01/26 09:28:55;;;;;;;11.70;3.90;;;5.30;99.90;;;;;;5017780;28;20438;-74
2023/01/26 09:31:20;;;;;;;12.40;3.33;;;5.30;99.90;;;;;;5012822;28;20049;-76
2023/01/26 09:33:48;;;;;;;9.23;2.83;;;5.40;99.90;;;;;;5010309;28;20112;-74
2023/01/26 09:36:14;;;;;;;16.05;4.10;;;5.40;99.90;;;;;;5034582;28;20042;-74
2023/01/26 09:38:39;;;;;;;17.38;3.50;;;5.50;99.90;;;;;;5008929;28;20542;-74
2023/01/26 09:41:30;;;;;;;25.73;6.00;;;5.60;99.90;;;;;;5018893;28;20566;-74
2023/01/26 09:44:02;;;;;;;16.33;4.70;;;5.60;99.90;;;;;;5027408;28;20064;-74
2023/01/26 09:46:58;;;;;;;16.73;3.67;;;5.60;99.90;;;;;;5026004;28;20490;-74
2023/01/26 09:49:53;;;;;;;7.65;4.53;;;5.70;99.90;;;;;;5012830;28;20423;-74
2023/01/26 09:52:27;;;;;;;12.25;4.38;;;5.80;99.90;;;;;;5013093;28;20121;-75
2023/01/26 09:54:57;;;;;;;24.08;4.82;;;5.80;99.90;;;;;;5016453;28;20038;-75
2023/01/26 09:57:36;;;;;;;17.20;3.33;;;5.80;99.90;;;;;;5022450;28;20049;-75
2023/01/26 10:00:19;;;;;;;11.52;4.10;;;5.80;99.90;;;;;;5026511;28;20069;-75
2023/01/26 10:02:59;;;;;;;25.55;4.20;;;5.90;99.90;;;;;;5020479;28;20034;-74
2023/01/26 10:05:40;;;;;;;14.95;4.43;;;5.90;99.90;;;;;;5007589;28;20483;-74
2023/01/26 10:08:12;;;;;;;19.15;5.03;;;6.00;99.90;;;;;;5008559;28;20073;-74
2023/01/26 10:10:46;;;;;;;7.57;3.53;;;6.00;99.90;;;;;;5013101;28;20132;-74
2023/01/26 10:13:14;;;;;;;12.43;3.80;;;6.00;99.90;;;;;;5012578;28;20068;-75
2023/01/26 10:15:49;;;;;;;7.97;3.53;;;6.00;99.90;;;;;;5009498;28;20470;-75
2023/01/26 10:18:27;;;;;;;26.02;5.53;;;6.10;99.90;;;;;;5027720;28;20041;-74
2023/01/26 10:20:59;;;;;;;13.52;3.45;;;6.10;99.90;;;;;;5026977;28;20132;-75
2023/01/26 10:23:29;;;;;;;7.45;2.72;;;6.10;99.90;;;;;;5015431;28;20052;-74
2023/01/26 10:26:16;;;;;;;12.88;3.17;;;6.10;99.90;;;;;;5028071;28;20049;-75
2023/01/26 10:28:44;;;;;;;12.13;2.67;;;6.20;99.90;;;;;;5015964;28;20046;-74
2023/01/26 10:31:31;;;;;;;18.80;2.88;;;6.20;99.90;;;;;;5007677;28;20129;-74
2023/01/26 10:34:01;;;;;;;8.70;3.78;;;6.30;99.90;;;;;;5015295;28;20099;-74
2023/01/26 10:36:30;;;;;;;10.70;4.30;;;6.40;99.90;;;;;;5014544;28;20477;-75
2023/01/26 10:39:04;;;;;;;6.97;3.83;;;6.40;99.90;;;;;;5020113;28;20056;-74
2023/01/26 10:41:30;;;;;;;15.40;2.92;;;6.40;99.90;;;;;;5019476;28;20299;-75
2023/01/26 10:44:03;;;;;;;17.50;4.70;;;6.40;99.90;;;;;;5007842;28;20129;-75
2023/01/26 10:46:33;;;;;;;13.40;4.50;;;6.50;99.90;;;;;;5019838;28;20144;-75
2023/01/26 10:49:20;;;;;;;10.45;3.72;;;6.50;99.90;;;;;;5015762;28;20085;-74
2023/01/26 10:52:24;;;;;;;10.60;3.85;;;6.50;99.90;;;;;;5006115;28;20053;-74
2023/01/26 10:55:08;;;;;;;8.35;3.53;;;6.60;99.90;;;;;;5008105;28;20038;-75
2023/01/26 10:57:37;;;;;;;6.07;2.25;;;6.60;99.90;;;;;;5009342;28;20069;-74
2023/01/26 11:00:29;;;;;;;22.42;5.05;;;6.60;99.90;;;;;;5025842;28;20505;-75
2023/01/26 11:03:05;;;;;;;12.40;3.20;;;6.60;99.90;;;;;;5027328;28;20041;-75
2023/01/26 11:05:30;;;;;;;14.73;4.05;;;6.60;99.90;;;;;;5025920;28;20467;-75
2023/01/26 11:08:01;;;;;;;4.63;2.45;;;6.70;99.90;;;;;;5020672;28;20049;-74
2023/01/26 11:10:38;;;;;;;9.57;3.88;;;6.70;99.90;;;;;;5008372;28;20042;-74
2023/01/26 11:13:09;;;;;;;24.33;4.43;;;6.70;99.90;;;;;;5007707;28;20101;-74
2023/01/26 11:15:40;;;;;;;13.52;4.28;;;6.70;99.90;;;;;;5009647;28;20042;-75
2023/01/26 11:18:15;;;;;;;11.18;3.88;;;6.80;99.90;;;;;;5016911;28;20175;-75
2023/01/26 11:21:08;;;;;;;17.10;4.38;;;6.80;99.90;;;;;;5022621;28;20057;-75
2023/01/26 11:24:02;;;;;;;6.30;2.72;;;6.80;99.90;;;;;;5012727;28;20427;-76
2023/01/26 11:26:36;;;;;;;7.50;3.08;;;6.80;99.90;;;;;;4989997;28;20416;-76
2023/01/26 11:29:39;;;;;;;7.93;2.67;;;6.80;99.90;;;;;;5005467;28;20406;-75
2023/01/26 11:32:23;;;;;;;8.65;2.60;;;6.80;99.90;;;;;;4988556;28;20414;-75
2023/01/26 11:35:29;;;;;;;20.92;2.83;;;6.80;99.90;;;;;;5024820;28;20111;-75
2023/01/26 11:38:08;;;;;;;7.00;2.53;;;6.90;99.90;;;;;;5006572;28;20548;-76
2023/01/26 11:40:58;;;;;;;6.32;3.10;;;6.90;99.90;;;;;;5006213;28;20050;-76
2023/01/26 11:43:39;;;;;;;6.80;3.05;;;6.90;99.90;;;;;;4971850;28;20050;-75
2023/01/26 11:46:16;;;;;;;8.63;2.70;;;7.00;99.90;;;;;;4988600;28;20490;-76
2023/01/26 11:48:50;;;;;;;7.22;2.90;;;7.00;99.90;;;;;;4995951;28;20128;-75
2023/01/26 11:51:51;;;;;;;11.05;2.97;;;7.00;99.90;;;;;;5008158;28;20093;-75
2023/01/26 11:54:42;;;;;;;5.25;2.67;;;7.00;99.90;;;;;;5001713;28;20057;-75
2023/01/26 11:57:32;;;;;;;18.75;2.15;;;7.00;99.90;;;;;;5025735;28;20054;-74
2023/01/26 12:00:47;;;;;;;31.52;3.58;;;7.10;99.90;;;;;;5010884;28;20045;-74
2023/01/26 12:03:34;;;;;;;12.95;3.80;;;7.10;99.90;;;;;;5017391;28;20050;-74
2023/01/26 12:06:13;;;;;;;5.32;2.25;;;7.10;99.90;;;;;;5005779;28;20108;-74
2023/01/26 12:08:46;;;;;;;6.05;2.28;;;7.20;99.90;;;;;;5006211;28;20073;-73
2023/01/26 12:11:21;;;;;;;8.77;2.75;;;7.20;99.90;;;;;;5012323;28;20068;-75
2023/01/26 12:14:32;;;;;;;9.00;2.90;;;7.20;99.90;;;;;;5005716;28;20088;-74
2023/01/26 12:17:04;;;;;;;4.10;1.50;;;7.20;99.90;;;;;;4950195;28;20058;-74
2023/01/26 12:19:35;;;;;;;2.40;1.77;;;7.10;99.90;;;;;;5036375;28;20037;-75
2023/01/26 12:22:21;;;;;;;4.15;2.38;;;7.10;99.90;;;;;;5005941;28;20053;-74
2023/01/26 12:24:53;;;;;;;6.50;2.30;;;7.00;99.90;;;;;;5016891;28;20453;-74
2023/01/26 12:27:26;;;;;;;8.90;2.80;;;7.00;99.90;;;;;;5015811;28;20049;-74
2023/01/26 12:30:10;;;;;;;7.03;2.33;;;7.00;99.90;;;;;;5008501;28;20376;-76
2023/01/26 12:32:36;;;;;;;3.67;2.20;;;7.00;99.90;;;;;;5022903;28;20149;-74
2023/01/26 12:35:02;;;;;;;5.00;2.25;;;7.00;99.90;;;;;;5008175;28;20124;-75
2023/01/26 12:37:33;;;;;;;4.47;2.28;;;7.00;99.90;;;;;;5001715;28;20443;-75
2023/01/26 12:39:58;;;;;;;14.05;2.05;;;7.10;99.90;;;;;;4990138;28;20056;-75
2023/01/26 12:42:47;;;;;;;18.40;3.22;;;7.20;99.90;;;;;;4990272;28;20046;-75
2023/01/26 12:45:21;;;;;;;8.02;2.13;;;7.20;99.90;;;;;;4990041;28;20096;-75
2023/01/26 12:47:52;;;;;;;13.30;2.97;;;7.20;99.90;;;;;;4989032;28;20045;-75
2023/01/26 12:50:37;;;;;;;3.58;1.75;;;7.20;99.90;;;;;;5021222;28;20505;-75
2023/01/26 12:53:14;;;;;;;2.00;1.52;;;7.30;99.90;;;;;;5023679;28;20093;-75
2023/01/26 12:55:46;;;;;;;5.05;1.83;;;7.30;99.90;;;;;;5008789;28;20038;-75
2023/01/26 12:58:20;;;;;;;9.15;2.58;;;7.30;99.90;;;;;;5005038;28;20045;-75
2023/01/26 13:00:56;;;;;;;11.52;3.33;;;7.30;99.90;;;;;;5021629;28;20029;-74
2023/01/26 13:03:27;;;;;;;9.80;3.28;;;7.30;99.90;;;;;;5058795;28;20103;-76
2023/01/26 13:06:00;;;;;;;14.95;3.28;;;7.30;99.90;;;;;;5038722;28;20681;-74
2023/01/26 13:08:31;;;;;;;5.88;2.30;;;7.30;99.90;;;;;;5011750;28;20149;-75
2023/01/26 13:11:08;;;;;;;4.95;2.63;;;7.30;99.90;;;;;;5020713;28;20068;-75
2023/01/26 13:13:53;;;;;;;4.55;2.38;;;7.30;99.90;;;;;;5042683;28;20054;-74
2023/01/26 13:16:19;;;;;;;3.63;2.47;;;7.40;99.90;;;;;;5035405;28;20034;-75
2023/01/26 13:18:50;;;;;;;5.82;1.73;;;7.40;99.90;;;;;;5009775;28;20073;-75
2023/01/26 13:21:34;;;;;;;10.60;2.95;;;7.40;99.90;;;;;;5019628;28;20091;-75
2023/01/26 13:24:00;;;;;;;14.20;2.65;;;7.40;99.90;;;;;;4990291;28;20212;-75
2023/01/26 13:26:31;;;;;;;6.35;1.98;;;7.50;99.90;;;;;;5020074;28;20045;-75
2023/01/26 13:29:30;;;;;;;4.57;1.57;;;7.40;99.90;;;;;;5027563;28;20091;-75
2023/01/26 13:31:59;;;;;;;7.28;2.83;;;7.40;99.90;;;;;;5005415;28;20050;-75
2023/01/26 13:34:35;;;;;;;9.80;3.58;;;7.40;99.90;;;;;;5016982;28;20029;-75
2023/01/26 13:37:27;;;;;;;3.72;1.85;;;7.40;99.90;;;;;;5028836;28;20045;-75
2023/01/26 13:39:59;;;;;;;3.55;1.80;;;7.40;99.90;;;;;;5056855;28;20052;-75
2023/01/26 13:42:31;;;;;;;14.32;2.08;;;7.30;99.90;;;;;;5009409;28;20421;-75
2023/01/26 13:45:02;;;;;;;6.50;1.95;;;7.30;99.90;;;;;;5007963;28;20056;-75
2023/01/26 13:47:37;;;;;;;8.00;2.13;;;7.30;99.90;;;;;;5021589;28;20046;-75
2023/01/26 13:50:23;;;;;;;4.18;1.83;;;7.30;99.90;;;;;;5026945;28;20120;-75